KVDI/VDI METAR and TAF weather

Enter ICAO airport designator
Station Type Date Time Source
KVDI METAR 2020/01/20 21:55 UTC NOAA

KVDI 202155Z AUTO 01006KT 10SM CLR 08/M08 A3029 RMK AO2


Station Type Date Time Source
KVDI Decoded METAR 2020/01/20 21:55 UTC NOAA

Vidalia, Vidalia Municipal Airport, GA, United States (KVDI) 32-11-33N 082-22-19W
Jan 20, 2020 - 04:55 PM EST / 2020.01.20 2155 UTC
Wind: from the N (010 degrees) at 7 MPH (6 KT):0
Visibility: 10 mile(s):0
Sky conditions: clear
Temperature: 46 F (8 C)
Dew Point: 17 F (-8 C)
Relative Humidity: 31%
Pressure (altimeter): 30.29 in. Hg (1025 hPa)
ob: KVDI 202155Z AUTO 01006KT 10SM CLR 08/M08 A3029 RMK AO2
cycle: 22

Station Type Date Time Source
KVDI TAF UTC NOAA

Error!

Example: see airport list